sensor_id;sensor_type;location;lat;lon;timestamp;P1;durP1;ratioP1;P2;durP2;ratioP2
438;SDS011;206;48.782;9.252;2023-10-08T00:01:14;6.90;;;4.40;;
438;SDS011;206;48.782;9.252;2023-10-08T00:03:41;6.40;;;4.50;;
438;SDS011;206;48.782;9.252;2023-10-08T00:06:13;6.70;;;4.53;;
438;SDS011;206;48.782;9.252;2023-10-08T00:08:40;7.67;;;4.67;;
438;SDS011;206;48.782;9.252;2023-10-08T00:11:05;4.83;;;3.33;;
438;SDS011;206;48.782;9.252;2023-10-08T00:13:32;7.17;;;5.00;;
438;SDS011;206;48.782;9.252;2023-10-08T00:16:04;7.20;;;4.73;;
438;SDS011;206;48.782;9.252;2023-10-08T00:18:37;10.30;;;5.43;;
438;SDS011;206;48.782;9.252;2023-10-08T00:21:06;6.60;;;3.87;;
438;SDS011;206;48.782;9.252;2023-10-08T00:23:35;11.43;;;5.93;;
438;SDS011;206;48.782;9.252;2023-10-08T00:26:03;7.97;;;4.37;;
438;SDS011;206;48.782;9.252;2023-10-08T00:28:29;5.90;;;4.40;;
438;SDS011;206;48.782;9.252;2023-10-08T00:30:56;6.80;;;5.10;;
438;SDS011;206;48.782;9.252;2023-10-08T00:33:22;9.40;;;4.77;;
438;SDS011;206;48.782;9.252;2023-10-08T00:35:49;8.50;;;5.00;;
438;SDS011;206;48.782;9.252;2023-10-08T00:38:14;9.23;;;5.00;;
438;SDS011;206;48.782;9.252;2023-10-08T00:40:41;9.00;;;5.23;;
438;SDS011;206;48.782;9.252;2023-10-08T00:43:32;15.53;;;5.43;;
438;SDS011;206;48.782;9.252;2023-10-08T00:45:58;7.90;;;5.33;;
438;SDS011;206;48.782;9.252;2023-10-08T00:48:24;7.37;;;5.23;;
438;SDS011;206;48.782;9.252;2023-10-08T00:50:54;8.40;;;4.70;;
438;SDS011;206;48.782;9.252;2023-10-08T00:53:34;8.70;;;4.67;;
438;SDS011;206;48.782;9.252;2023-10-08T00:56:05;7.40;;;4.90;;
438;SDS011;206;48.782;9.252;2023-10-08T00:58:39;11.33;;;4.90;;
438;SDS011;206;48.782;9.252;2023-10-08T01:01:11;9.20;;;5.90;;
438;SDS011;206;48.782;9.252;2023-10-08T01:03:37;6.37;;;5.20;;
438;SDS011;206;48.782;9.252;2023-10-08T01:06:09;7.20;;;5.50;;
438;SDS011;206;48.782;9.252;2023-10-08T01:08:36;7.50;;;4.60;;
438;SDS011;206;48.782;9.252;2023-10-08T01:11:20;8.70;;;5.83;;
438;SDS011;206;48.782;9.252;2023-10-08T01:13:57;8.70;;;6.00;;
438;SDS011;206;48.782;9.252;2023-10-08T01:16:24;7.80;;;4.63;;
438;SDS011;206;48.782;9.252;2023-10-08T01:18:52;6.50;;;5.00;;
438;SDS011;206;48.782;9.252;2023-10-08T01:21:19;9.90;;;6.50;;
438;SDS011;206;48.782;9.252;2023-10-08T01:23:59;7.80;;;5.03;;
438;SDS011;206;48.782;9.252;2023-10-08T01:26:31;11.43;;;5.90;;
438;SDS011;206;48.782;9.252;2023-10-08T01:28:57;8.10;;;5.10;;
438;SDS011;206;48.782;9.252;2023-10-08T01:31:27;9.50;;;5.20;;
438;SDS011;206;48.782;9.252;2023-10-08T01:33:53;9.53;;;5.03;;
438;SDS011;206;48.782;9.252;2023-10-08T01:36:21;8.87;;;5.70;;
438;SDS011;206;48.782;9.252;2023-10-08T01:38:50;6.23;;;5.00;;
438;SDS011;206;48.782;9.252;2023-10-08T01:41:16;8.27;;;5.20;;
438;SDS011;206;48.782;9.252;2023-10-08T01:43:47;9.27;;;5.63;;
438;SDS011;206;48.782;9.252;2023-10-08T01:46:15;8.40;;;5.70;;
438;SDS011;206;48.782;9.252;2023-10-08T01:48:41;11.77;;;5.33;;
438;SDS011;206;48.782;9.252;2023-10-08T01:51:09;5.83;;;4.60;;
438;SDS011;206;48.782;9.252;2023-10-08T01:53:37;6.80;;;5.50;;
438;SDS011;206;48.782;9.252;2023-10-08T01:56:03;8.07;;;4.73;;
438;SDS011;206;48.782;9.252;2023-10-08T01:58:29;9.43;;;5.97;;
438;SDS011;206;48.782;9.252;2023-10-08T02:00:55;10.83;;;5.77;;
438;SDS011;206;48.782;9.252;2023-10-08T02:03:25;9.10;;;5.13;;
438;SDS011;206;48.782;9.252;2023-10-08T02:05:52;6.67;;;3.93;;
438;SDS011;206;48.782;9.252;2023-10-08T02:08:24;7.97;;;5.43;;
438;SDS011;206;48.782;9.252;2023-10-08T02:10:51;6.70;;;4.80;;
438;SDS011;206;48.782;9.252;2023-10-08T02:13:17;11.20;;;5.33;;
438;SDS011;206;48.782;9.252;2023-10-08T02:15:44;5.60;;;4.33;;
438;SDS011;206;48.782;9.252;2023-10-08T02:18:16;8.27;;;4.70;;
438;SDS011;206;48.782;9.252;2023-10-08T02:20:42;8.00;;;5.60;;
438;SDS011;206;48.782;9.252;2023-10-08T02:23:08;7.20;;;4.90;;
438;SDS011;206;48.782;9.252;2023-10-08T02:25:36;9.33;;;4.53;;
438;SDS011;206;48.782;9.252;2023-10-08T02:28:06;8.70;;;5.77;;
438;SDS011;206;48.782;9.252;2023-10-08T02:30:38;8.73;;;4.50;;
438;SDS011;206;48.782;9.252;2023-10-08T02:33:05;5.77;;;4.63;;
438;SDS011;206;48.782;9.252;2023-10-08T02:35:41;7.50;;;4.50;;
438;SDS011;206;48.782;9.252;2023-10-08T02:38:09;7.53;;;4.93;;
438;SDS011;206;48.782;9.252;2023-10-08T02:40:37;5.90;;;4.50;;
438;SDS011;206;48.782;9.252;2023-10-08T02:43:08;7.10;;;5.00;;
438;SDS011;206;48.782;9.252;2023-10-08T02:45:34;5.37;;;4.20;;
438;SDS011;206;48.782;9.252;2023-10-08T02:48:03;6.17;;;4.53;;
438;SDS011;206;48.782;9.252;2023-10-08T02:50:37;4.90;;;3.70;;
438;SDS011;206;48.782;9.252;2023-10-08T02:53:04;6.20;;;4.17;;
438;SDS011;206;48.782;9.252;2023-10-08T02:55:37;7.57;;;4.80;;
438;SDS011;206;48.782;9.252;2023-10-08T02:58:12;8.07;;;4.87;;
438;SDS011;206;48.782;9.252;2023-10-08T03:00:44;11.90;;;5.13;;
438;SDS011;206;48.782;9.252;2023-10-08T03:03:13;7.57;;;4.67;;
438;SDS011;206;48.782;9.252;2023-10-08T03:05:46;11.17;;;6.17;;
438;SDS011;206;48.782;9.252;2023-10-08T03:08:16;7.27;;;3.63;;
438;SDS011;206;48.782;9.252;2023-10-08T03:10:46;5.57;;;4.13;;
438;SDS011;206;48.782;9.252;2023-10-08T03:13:14;6.07;;;3.83;;
438;SDS011;206;48.782;9.252;2023-10-08T03:15:41;6.00;;;4.10;;
438;SDS011;206;48.782;9.252;2023-10-08T03:18:13;7.30;;;4.90;;
438;SDS011;206;48.782;9.252;2023-10-08T03:20:43;16.23;;;4.77;;
438;SDS011;206;48.782;9.252;2023-10-08T03:23:12;8.97;;;5.17;;
438;SDS011;206;48.782;9.252;2023-10-08T03:25:51;7.90;;;4.10;;
438;SDS011;206;48.782;9.252;2023-10-08T03:28:23;9.60;;;4.83;;
438;SDS011;206;48.782;9.252;2023-10-08T03:30:50;6.60;;;3.63;;
438;SDS011;206;48.782;9.252;2023-10-08T03:33:29;11.27;;;4.53;;
438;SDS011;206;48.782;9.252;2023-10-08T03:36:06;6.70;;;4.30;;
438;SDS011;206;48.782;9.252;2023-10-08T03:38:54;7.00;;;4.60;;
438;SDS011;206;48.782;9.252;2023-10-08T03:41:22;6.50;;;4.97;;
438;SDS011;206;48.782;9.252;2023-10-08T03:43:52;5.17;;;3.97;;
438;SDS011;206;48.782;9.252;2023-10-08T03:46:21;8.87;;;5.50;;
438;SDS011;206;48.782;9.252;2023-10-08T03:48:51;9.63;;;5.30;;
438;SDS011;206;48.782;9.252;2023-10-08T03:51:20;7.97;;;4.17;;
438;SDS011;206;48.782;9.252;2023-10-08T03:53:46;8.30;;;4.90;;
438;SDS011;206;48.782;9.252;2023-10-08T03:56:35;6.20;;;4.10;;
438;SDS011;206;48.782;9.252;2023-10-08T03:59:02;7.63;;;4.70;;
438;SDS011;206;48.782;9.252;2023-10-08T04:01:53;7.13;;;4.83;;
438;SDS011;206;48.782;9.252;2023-10-08T04:04:20;8.60;;;4.03;;
438;SDS011;206;48.782;9.252;2023-10-08T04:06:55;8.30;;;5.33;;
438;SDS011;206;48.782;9.252;2023-10-08T04:09:38;8.67;;;5.00;;
438;SDS011;206;48.782;9.252;2023-10-08T04:12:04;5.90;;;3.97;;
438;SDS011;206;48.782;9.252;2023-10-08T04:14:35;6.40;;;4.23;;
438;SDS011;206;48.782;9.252;2023-10-08T04:17:01;10.20;;;4.00;;
438;SDS011;206;48.782;9.252;2023-10-08T04:19:28;8.27;;;4.70;;
438;SDS011;206;48.782;9.252;2023-10-08T04:21:55;5.47;;;4.30;;
438;SDS011;206;48.782;9.252;2023-10-08T04:24:22;11.63;;;5.00;;
438;SDS011;206;48.782;9.252;2023-10-08T04:27:00;8.10;;;4.37;;
438;SDS011;206;48.782;9.252;2023-10-08T04:29:28;10.43;;;4.83;;
438;SDS011;206;48.782;9.252;2023-10-08T04:31:57;9.33;;;4.50;;
438;SDS011;206;48.782;9.252;2023-10-08T04:34:29;6.37;;;4.50;;
438;SDS011;206;48.782;9.252;2023-10-08T04:36:58;6.57;;;5.27;;
438;SDS011;206;48.782;9.252;2023-10-08T04:39:26;7.50;;;4.27;;
438;SDS011;206;48.782;9.252;2023-10-08T04:42:01;5.93;;;3.50;;
438;SDS011;206;48.782;9.252;2023-10-08T04:44:38;6.33;;;4.33;;
438;SDS011;206;48.782;9.252;2023-10-08T04:47:06;10.20;;;5.30;;
438;SDS011;206;48.782;9.252;2023-10-08T04:49:55;11.27;;;6.03;;
438;SDS011;206;48.782;9.252;2023-10-08T04:52:21;8.67;;;4.73;;
438;SDS011;206;48.782;9.252;2023-10-08T04:54:50;6.37;;;4.30;;
438;SDS011;206;48.782;9.252;2023-10-08T04:57:19;7.67;;;4.03;;
438;SDS011;206;48.782;9.252;2023-10-08T04:59:47;7.57;;;4.07;;
438;SDS011;206;48.782;9.252;2023-10-08T05:02:15;7.90;;;5.00;;
438;SDS011;206;48.782;9.252;2023-10-08T05:04:44;8.37;;;5.03;;
438;SDS011;206;48.782;9.252;2023-10-08T05:07:16;7.30;;;4.70;;
438;SDS011;206;48.782;9.252;2023-10-08T05:09:46;10.80;;;4.43;;
438;SDS011;206;48.782;9.252;2023-10-08T05:12:17;8.20;;;4.60;;
438;SDS011;206;48.782;9.252;2023-10-08T05:15:09;11.80;;;4.37;;
438;SDS011;206;48.782;9.252;2023-10-08T05:17:42;4.47;;;3.93;;
438;SDS011;206;48.782;9.252;2023-10-08T05:20:14;6.93;;;4.73;;
438;SDS011;206;48.782;9.252;2023-10-08T05:23:05;9.57;;;4.80;;
438;SDS011;206;48.782;9.252;2023-10-08T05:25:51;7.70;;;5.00;;
438;SDS011;206;48.782;9.252;2023-10-08T05:28:37;8.30;;;5.00;;
438;SDS011;206;48.782;9.252;2023-10-08T05:31:22;7.30;;;5.07;;
438;SDS011;206;48.782;9.252;2023-10-08T05:34:06;12.03;;;4.90;;
438;SDS011;206;48.782;9.252;2023-10-08T05:36:51;9.90;;;5.20;;
438;SDS011;206;48.782;9.252;2023-10-08T05:39:25;6.07;;;4.43;;
438;SDS011;206;48.782;9.252;2023-10-08T05:42:08;7.87;;;4.93;;
438;SDS011;206;48.782;9.252;2023-10-08T05:45:10;6.50;;;4.37;;
438;SDS011;206;48.782;9.252;2023-10-08T05:47:36;6.57;;;5.20;;
438;SDS011;206;48.782;9.252;2023-10-08T05:50:02;7.90;;;5.20;;
438;SDS011;206;48.782;9.252;2023-10-08T05:52:41;8.73;;;4.57;;
438;SDS011;206;48.782;9.252;2023-10-08T05:55:27;11.50;;;4.40;;
438;SDS011;206;48.782;9.252;2023-10-08T05:58:00;5.70;;;4.40;;
438;SDS011;206;48.782;9.252;2023-10-08T06:00:42;6.87;;;5.63;;
438;SDS011;206;48.782;9.252;2023-10-08T06:03:14;11.07;;;5.10;;
438;SDS011;206;48.782;9.252;2023-10-08T06:05:57;6.87;;;4.80;;
438;SDS011;206;48.782;9.252;2023-10-08T06:08:39;9.30;;;5.00;;
438;SDS011;206;48.782;9.252;2023-10-08T06:11:20;5.07;;;4.23;;
438;SDS011;206;48.782;9.252;2023-10-08T06:14:04;7.20;;;4.43;;
438;SDS011;206;48.782;9.252;2023-10-08T06:16:52;8.10;;;4.57;;
438;SDS011;206;48.782;9.252;2023-10-08T06:19:38;8.93;;;5.23;;
438;SDS011;206;48.782;9.252;2023-10-08T06:22:04;6.63;;;4.60;;
438;SDS011;206;48.782;9.252;2023-10-08T06:24:30;9.00;;;5.77;;
438;SDS011;206;48.782;9.252;2023-10-08T06:26:58;11.00;;;9.17;;
438;SDS011;206;48.782;9.252;2023-10-08T06:29:29;11.90;;;9.57;;
438;SDS011;206;48.782;9.252;2023-10-08T06:31:56;11.93;;;9.10;;
438;SDS011;206;48.782;9.252;2023-10-08T06:34:26;8.40;;;7.43;;
438;SDS011;206;48.782;9.252;2023-10-08T06:36:57;12.07;;;7.47;;
438;SDS011;206;48.782;9.252;2023-10-08T06:39:25;8.47;;;6.83;;
438;SDS011;206;48.782;9.252;2023-10-08T06:41:57;9.00;;;7.80;;
438;SDS011;206;48.782;9.252;2023-10-08T06:44:24;7.67;;;6.83;;
438;SDS011;206;48.782;9.252;2023-10-08T06:46:51;11.43;;;6.97;;
438;SDS011;206;48.782;9.252;2023-10-08T06:49:23;10.67;;;6.60;;
438;SDS011;206;48.782;9.252;2023-10-08T06:51:49;11.97;;;7.93;;
438;SDS011;206;48.782;9.252;2023-10-08T06:54:16;8.90;;;7.47;;
438;SDS011;206;48.782;9.252;2023-10-08T06:56:43;8.67;;;8.17;;
438;SDS011;206;48.782;9.252;2023-10-08T06:59:13;9.73;;;9.23;;
438;SDS011;206;48.782;9.252;2023-10-08T07:01:40;13.33;;;9.13;;
438;SDS011;206;48.782;9.252;2023-10-08T07:04:06;8.43;;;6.80;;
438;SDS011;206;48.782;9.252;2023-10-08T07:06:37;9.17;;;6.40;;
438;SDS011;206;48.782;9.252;2023-10-08T07:09:05;9.03;;;6.60;;
438;SDS011;206;48.782;9.252;2023-10-08T07:11:32;6.33;;;5.40;;
438;SDS011;206;48.782;9.252;2023-10-08T07:14:04;9.03;;;5.17;;
438;SDS011;206;48.782;9.252;2023-10-08T07:16:30;8.83;;;6.40;;
438;SDS011;206;48.782;9.252;2023-10-08T07:18:57;11.23;;;6.10;;
438;SDS011;206;48.782;9.252;2023-10-08T07:21:40;8.20;;;6.80;;
438;SDS011;206;48.782;9.252;2023-10-08T07:24:15;11.97;;;7.00;;
438;SDS011;206;48.782;9.252;2023-10-08T07:26:41;6.83;;;5.57;;
438;SDS011;206;48.782;9.252;2023-10-08T07:29:11;11.07;;;6.67;;
438;SDS011;206;48.782;9.252;2023-10-08T07:31:41;7.97;;;5.33;;
438;SDS011;206;48.782;9.252;2023-10-08T07:34:08;9.60;;;5.67;;
438;SDS011;206;48.782;9.252;2023-10-08T07:36:43;12.17;;;6.03;;
438;SDS011;206;48.782;9.252;2023-10-08T07:39:16;9.67;;;6.23;;
438;SDS011;206;48.782;9.252;2023-10-08T07:41:53;6.13;;;4.63;;
438;SDS011;206;48.782;9.252;2023-10-08T07:44:20;8.63;;;5.77;;
438;SDS011;206;48.782;9.252;2023-10-08T07:46:49;9.83;;;6.23;;
438;SDS011;206;48.782;9.252;2023-10-08T07:49:17;7.40;;;5.93;;
438;SDS011;206;48.782;9.252;2023-10-08T07:51:43;8.97;;;5.67;;
438;SDS011;206;48.782;9.252;2023-10-08T07:54:16;10.43;;;6.37;;
438;SDS011;206;48.782;9.252;2023-10-08T07:56:49;13.67;;;8.10;;
438;SDS011;206;48.782;9.252;2023-10-08T07:59:22;31.03;;;7.40;;
438;SDS011;206;48.782;9.252;2023-10-08T08:01:47;8.67;;;6.30;;
438;SDS011;206;48.782;9.252;2023-10-08T08:04:13;9.40;;;6.20;;
438;SDS011;206;48.782;9.252;2023-10-08T08:06:49;10.80;;;5.27;;
438;SDS011;206;48.782;9.252;2023-10-08T08:09:16;8.87;;;5.63;;
438;SDS011;206;48.782;9.252;2023-10-08T08:11:45;7.17;;;5.13;;
438;SDS011;206;48.782;9.252;2023-10-08T08:14:16;8.93;;;5.33;;
438;SDS011;206;48.782;9.252;2023-10-08T08:16:45;10.13;;;6.43;;
438;SDS011;206;48.782;9.252;2023-10-08T08:19:16;9.43;;;5.50;;
438;SDS011;206;48.782;9.252;2023-10-08T08:21:49;8.93;;;6.40;;
438;SDS011;206;48.782;9.252;2023-10-08T08:24:15;10.70;;;6.17;;
438;SDS011;206;48.782;9.252;2023-10-08T08:26:56;9.30;;;5.63;;
438;SDS011;206;48.782;9.252;2023-10-08T08:29:37;12.07;;;5.90;;
438;SDS011;206;48.782;9.252;2023-10-08T08:32:09;10.87;;;5.40;;
438;SDS011;206;48.782;9.252;2023-10-08T08:34:40;9.03;;;6.27;;
438;SDS011;206;48.782;9.252;2023-10-08T08:37:08;9.13;;;5.57;;
438;SDS011;206;48.782;9.252;2023-10-08T08:39:36;5.80;;;5.07;;
438;SDS011;206;48.782;9.252;2023-10-08T08:42:03;7.87;;;5.33;;
438;SDS011;206;48.782;9.252;2023-10-08T08:44:34;10.73;;;5.93;;
438;SDS011;206;48.782;9.252;2023-10-08T08:47:10;8.47;;;5.17;;
438;SDS011;206;48.782;9.252;2023-10-08T08:49:40;6.40;;;5.40;;
438;SDS011;206;48.782;9.252;2023-10-08T08:52:07;7.00;;;5.30;;
438;SDS011;206;48.782;9.252;2023-10-08T08:54:34;8.77;;;5.43;;
438;SDS011;206;48.782;9.252;2023-10-08T08:57:02;6.90;;;5.37;;
438;SDS011;206;48.782;9.252;2023-10-08T08:59:38;7.63;;;5.07;;
438;SDS011;206;48.782;9.252;2023-10-08T09:02:11;7.83;;;4.80;;
438;SDS011;206;48.782;9.252;2023-10-08T09:04:39;7.00;;;5.30;;
438;SDS011;206;48.782;9.252;2023-10-08T09:07:05;8.20;;;4.63;;
438;SDS011;206;48.782;9.252;2023-10-08T09:09:31;8.87;;;5.27;;
438;SDS011;206;48.782;9.252;2023-10-08T09:11:57;8.80;;;5.50;;
438;SDS011;206;48.782;9.252;2023-10-08T09:14:23;7.70;;;5.17;;
438;SDS011;206;48.782;9.252;2023-10-08T09:16:50;7.67;;;4.80;;
438;SDS011;206;48.782;9.252;2023-10-08T09:19:19;7.93;;;4.67;;
438;SDS011;206;48.782;9.252;2023-10-08T09:22:09;7.50;;;4.80;;
438;SDS011;206;48.782;9.252;2023-10-08T09:24:40;5.80;;;3.70;;
438;SDS011;206;48.782;9.252;2023-10-08T09:27:06;5.60;;;3.80;;
438;SDS011;206;48.782;9.252;2023-10-08T09:29:34;7.10;;;4.57;;
438;SDS011;206;48.782;9.252;2023-10-08T09:32:04;5.30;;;4.30;;
438;SDS011;206;48.782;9.252;2023-10-08T09:34:31;7.47;;;4.27;;
438;SDS011;206;48.782;9.252;2023-10-08T09:36:58;11.17;;;5.10;;
438;SDS011;206;48.782;9.252;2023-10-08T09:39:28;6.40;;;4.70;;
438;SDS011;206;48.782;9.252;2023-10-08T09:41:58;7.10;;;4.27;;
438;SDS011;206;48.782;9.252;2023-10-08T09:44:29;8.47;;;5.03;;
438;SDS011;206;48.782;9.252;2023-10-08T09:49:32;7.40;;;4.23;;
438;SDS011;206;48.782;9.252;2023-10-08T09:52:01;14.43;;;6.23;;
438;SDS011;206;48.782;9.252;2023-10-08T09:54:31;7.90;;;5.03;;
438;SDS011;206;48.782;9.252;2023-10-08T09:57:17;5.80;;;5.00;;
438;SDS011;206;48.782;9.252;2023-10-08T09:59:43;5.80;;;4.60;;
438;SDS011;206;48.782;9.252;2023-10-08T10:02:11;9.37;;;5.57;;
438;SDS011;206;48.782;9.252;2023-10-08T10:04:46;8.10;;;5.20;;
438;SDS011;206;48.782;9.252;2023-10-08T10:07:12;10.07;;;4.40;;
438;SDS011;206;48.782;9.252;2023-10-08T10:09:42;9.98;;;5.00;;
438;SDS011;206;48.782;9.252;2023-10-08T10:12:10;6.80;;;4.07;;
438;SDS011;206;48.782;9.252;2023-10-08T10:14:43;4.63;;;3.70;;
438;SDS011;206;48.782;9.252;2023-10-08T10:17:14;7.77;;;4.50;;
438;SDS011;206;48.782;9.252;2023-10-08T10:19:49;5.77;;;3.70;;
438;SDS011;206;48.782;9.252;2023-10-08T10:22:26;9.40;;;4.20;;
438;SDS011;206;48.782;9.252;2023-10-08T10:24:56;6.57;;;5.33;;
438;SDS011;206;48.782;9.252;2023-10-08T10:27:23;6.63;;;4.50;;
438;SDS011;206;48.782;9.252;2023-10-08T10:29:49;7.10;;;5.10;;
438;SDS011;206;48.782;9.252;2023-10-08T10:32:15;8.63;;;4.30;;
438;SDS011;206;48.782;9.252;2023-10-08T10:34:44;7.40;;;5.03;;
438;SDS011;206;48.782;9.252;2023-10-08T10:37:16;8.20;;;4.50;;
438;SDS011;206;48.782;9.252;2023-10-08T10:39:56;11.47;;;4.23;;
438;SDS011;206;48.782;9.252;2023-10-08T10:42:26;6.03;;;4.10;;
438;SDS011;206;48.782;9.252;2023-10-08T10:44:53;8.90;;;4.47;;
438;SDS011;206;48.782;9.252;2023-10-08T10:47:20;7.10;;;4.53;;
438;SDS011;206;48.782;9.252;2023-10-08T10:49:48;11.30;;;5.07;;
438;SDS011;206;48.782;9.252;2023-10-08T10:52:24;6.80;;;3.80;;
438;SDS011;206;48.782;9.252;2023-10-08T10:55:03;7.10;;;4.10;;
438;SDS011;206;48.782;9.252;2023-10-08T10:57:39;5.50;;;3.73;;
438;SDS011;206;48.782;9.252;2023-10-08T11:00:07;8.13;;;4.13;;
438;SDS011;206;48.782;9.252;2023-10-08T11:02:51;5.97;;;3.70;;
438;SDS011;206;48.782;9.252;2023-10-08T11:05:21;12.20;;;4.00;;
438;SDS011;206;48.782;9.252;2023-10-08T11:07:53;8.70;;;3.73;;
438;SDS011;206;48.782;9.252;2023-10-08T11:10:25;5.67;;;3.30;;
438;SDS011;206;48.782;9.252;2023-10-08T11:12:53;7.50;;;5.20;;
438;SDS011;206;48.782;9.252;2023-10-08T11:15:19;9.90;;;3.67;;
438;SDS011;206;48.782;9.252;2023-10-08T11:17:48;6.10;;;4.27;;
438;SDS011;206;48.782;9.252;2023-10-08T11:20:25;4.47;;;3.13;;
438;SDS011;206;48.782;9.252;2023-10-08T11:22:52;6.20;;;3.97;;
438;SDS011;206;48.782;9.252;2023-10-08T11:25:25;8.53;;;3.63;;
438;SDS011;206;48.782;9.252;2023-10-08T11:27:56;5.93;;;4.17;;
438;SDS011;206;48.782;9.252;2023-10-08T11:30:30;9.00;;;4.27;;
438;SDS011;206;48.782;9.252;2023-10-08T11:33:00;6.40;;;3.73;;
438;SDS011;206;48.782;9.252;2023-10-08T11:35:25;6.30;;;4.47;;
438;SDS011;206;48.782;9.252;2023-10-08T11:37:57;5.63;;;4.40;;
438;SDS011;206;48.782;9.252;2023-10-08T11:40:26;5.27;;;3.93;;
438;SDS011;206;48.782;9.252;2023-10-08T11:43:05;6.20;;;4.00;;
438;SDS011;206;48.782;9.252;2023-10-08T11:45:30;5.43;;;3.90;;
438;SDS011;206;48.782;9.252;2023-10-08T11:48:06;14.20;;;3.73;;
438;SDS011;206;48.782;9.252;2023-10-08T11:50:38;10.00;;;4.40;;
438;SDS011;206;48.782;9.252;2023-10-08T11:53:04;7.40;;;4.70;;
438;SDS011;206;48.782;9.252;2023-10-08T11:55:33;9.13;;;4.67;;
438;SDS011;206;48.782;9.252;2023-10-08T11:58:00;6.17;;;4.17;;
438;SDS011;206;48.782;9.252;2023-10-08T12:00:35;6.70;;;4.97;;
438;SDS011;206;48.782;9.252;2023-10-08T12:03:08;7.77;;;4.00;;
438;SDS011;206;48.782;9.252;2023-10-08T12:05:44;6.47;;;4.63;;
438;SDS011;206;48.782;9.252;2023-10-08T12:08:17;7.07;;;3.63;;
438;SDS011;206;48.782;9.252;2023-10-08T12:10:46;8.00;;;4.23;;
438;SDS011;206;48.782;9.252;2023-10-08T12:13:13;6.60;;;3.90;;
438;SDS011;206;48.782;9.252;2023-10-08T12:15:41;8.67;;;4.30;;
438;SDS011;206;48.782;9.252;2023-10-08T12:18:09;8.20;;;5.23;;
438;SDS011;206;48.782;9.252;2023-10-08T12:20:50;6.90;;;4.53;;
438;SDS011;206;48.782;9.252;2023-10-08T12:23:17;8.23;;;4.03;;
438;SDS011;206;48.782;9.252;2023-10-08T12:25:54;9.17;;;3.70;;
438;SDS011;206;48.782;9.252;2023-10-08T12:28:23;7.30;;;4.53;;
438;SDS011;206;48.782;9.252;2023-10-08T12:30:50;5.90;;;4.23;;
438;SDS011;206;48.782;9.252;2023-10-08T12:33:21;8.23;;;5.07;;
438;SDS011;206;48.782;9.252;2023-10-08T12:35:49;7.87;;;3.50;;
438;SDS011;206;48.782;9.252;2023-10-08T12:38:18;9.53;;;4.57;;
438;SDS011;206;48.782;9.252;2023-10-08T12:40:47;7.63;;;4.40;;
438;SDS011;206;48.782;9.252;2023-10-08T12:43:17;7.67;;;4.30;;
438;SDS011;206;48.782;9.252;2023-10-08T12:45:53;10.80;;;5.07;;
438;SDS011;206;48.782;9.252;2023-10-08T12:48:21;6.57;;;3.47;;
438;SDS011;206;48.782;9.252;2023-10-08T12:50:52;11.93;;;4.90;;
438;SDS011;206;48.782;9.252;2023-10-08T12:53:22;6.47;;;4.60;;
438;SDS011;206;48.782;9.252;2023-10-08T12:56:07;6.43;;;4.70;;
438;SDS011;206;48.782;9.252;2023-10-08T12:58:40;7.30;;;4.97;;
438;SDS011;206;48.782;9.252;2023-10-08T13:01:09;4.97;;;4.07;;
438;SDS011;206;48.782;9.252;2023-10-08T13:03:36;9.43;;;4.60;;
438;SDS011;206;48.782;9.252;2023-10-08T13:06:06;9.63;;;4.20;;
438;SDS011;206;48.782;9.252;2023-10-08T13:08:56;7.33;;;4.87;;
438;SDS011;206;48.782;9.252;2023-10-08T13:11:23;8.80;;;4.17;;
438;SDS011;206;48.782;9.252;2023-10-08T13:13:53;9.90;;;3.97;;
438;SDS011;206;48.782;9.252;2023-10-08T13:16:24;9.93;;;4.33;;
438;SDS011;206;48.782;9.252;2023-10-08T13:18:51;6.70;;;4.10;;
438;SDS011;206;48.782;9.252;2023-10-08T13:21:17;16.30;;;4.60;;
438;SDS011;206;48.782;9.252;2023-10-08T13:23:49;10.27;;;5.10;;
438;SDS011;206;48.782;9.252;2023-10-08T13:26:16;9.87;;;4.50;;
438;SDS011;206;48.782;9.252;2023-10-08T13:28:42;9.80;;;4.63;;
438;SDS011;206;48.782;9.252;2023-10-08T13:31:09;13.00;;;5.23;;
438;SDS011;206;48.782;9.252;2023-10-08T13:33:38;7.30;;;5.90;;
438;SDS011;206;48.782;9.252;2023-10-08T13:36:08;10.93;;;4.70;;
438;SDS011;206;48.782;9.252;2023-10-08T13:38:35;16.73;;;6.37;;
438;SDS011;206;48.782;9.252;2023-10-08T13:41:04;9.47;;;4.60;;
438;SDS011;206;48.782;9.252;2023-10-08T13:43:45;9.27;;;4.20;;
438;SDS011;206;48.782;9.252;2023-10-08T13:46:19;11.80;;;4.57;;
438;SDS011;206;48.782;9.252;2023-10-08T13:48:48;11.03;;;4.90;;
438;SDS011;206;48.782;9.252;2023-10-08T13:51:15;9.13;;;4.50;;
438;SDS011;206;48.782;9.252;2023-10-08T13:53:50;7.03;;;4.10;;
438;SDS011;206;48.782;9.252;2023-10-08T13:56:18;10.00;;;5.70;;
438;SDS011;206;48.782;9.252;2023-10-08T13:58:48;12.03;;;6.00;;
438;SDS011;206;48.782;9.252;2023-10-08T14:01:16;12.43;;;5.60;;
438;SDS011;206;48.782;9.252;2023-10-08T14:03:48;16.27;;;5.93;;
438;SDS011;206;48.782;9.252;2023-10-08T14:06:23;9.43;;;4.90;;
438;SDS011;206;48.782;9.252;2023-10-08T14:08:50;9.83;;;4.00;;
438;SDS011;206;48.782;9.252;2023-10-08T14:11:20;9.00;;;5.07;;
438;SDS011;206;48.782;9.252;2023-10-08T14:13:51;11.13;;;4.57;;
438;SDS011;206;48.782;9.252;2023-10-08T14:16:20;10.10;;;4.00;;
438;SDS011;206;48.782;9.252;2023-10-08T14:18:53;7.80;;;4.60;;
438;SDS011;206;48.782;9.252;2023-10-08T14:21:26;10.40;;;4.37;;
438;SDS011;206;48.782;9.252;2023-10-08T14:24:03;11.17;;;4.67;;
438;SDS011;206;48.782;9.252;2023-10-08T14:26:30;10.50;;;4.40;;
438;SDS011;206;48.782;9.252;2023-10-08T14:29:04;10.13;;;4.30;;
438;SDS011;206;48.782;9.252;2023-10-08T14:31:35;6.30;;;4.07;;
438;SDS011;206;48.782;9.252;2023-10-08T14:34:04;6.70;;;3.50;;
438;SDS011;206;48.782;9.252;2023-10-08T14:36:31;7.53;;;4.80;;
438;SDS011;206;48.782;9.252;2023-10-08T14:39:16;6.50;;;4.17;;
438;SDS011;206;48.782;9.252;2023-10-08T14:42:01;6.50;;;4.57;;
438;SDS011;206;48.782;9.252;2023-10-08T14:44:45;8.50;;;4.10;;
438;SDS011;206;48.782;9.252;2023-10-08T14:47:13;6.93;;;4.30;;
438;SDS011;206;48.782;9.252;2023-10-08T14:49:38;9.93;;;4.33;;
438;SDS011;206;48.782;9.252;2023-10-08T14:52:04;8.40;;;5.10;;
438;SDS011;206;48.782;9.252;2023-10-08T14:54:30;7.83;;;4.10;;
438;SDS011;206;48.782;9.252;2023-10-08T14:56:56;10.87;;;4.37;;
438;SDS011;206;48.782;9.252;2023-10-08T14:59:22;8.37;;;4.80;;
438;SDS011;206;48.782;9.252;2023-10-08T15:01:48;7.97;;;4.20;;
438;SDS011;206;48.782;9.252;2023-10-08T15:04:15;6.57;;;4.20;;
438;SDS011;206;48.782;9.252;2023-10-08T15:06:42;12.10;;;4.27;;
438;SDS011;206;48.782;9.252;2023-10-08T15:09:08;6.53;;;4.43;;
438;SDS011;206;48.782;9.252;2023-10-08T15:11:34;10.10;;;4.10;;
438;SDS011;206;48.782;9.252;2023-10-08T15:14:01;8.50;;;4.67;;
438;SDS011;206;48.782;9.252;2023-10-08T15:16:34;7.90;;;4.40;;
438;SDS011;206;48.782;9.252;2023-10-08T15:19:01;9.90;;;4.73;;
438;SDS011;206;48.782;9.252;2023-10-08T15:21:29;7.57;;;4.30;;
438;SDS011;206;48.782;9.252;2023-10-08T15:23:58;10.40;;;4.10;;
438;SDS011;206;48.782;9.252;2023-10-08T15:26:30;6.47;;;4.30;;
438;SDS011;206;48.782;9.252;2023-10-08T15:28:56;7.37;;;3.80;;
438;SDS011;206;48.782;9.252;2023-10-08T15:31:22;11.83;;;4.63;;
438;SDS011;206;48.782;9.252;2023-10-08T15:33:49;8.00;;;5.10;;
438;SDS011;206;48.782;9.252;2023-10-08T15:36:14;6.23;;;4.07;;
438;SDS011;206;48.782;9.252;2023-10-08T15:38:40;11.50;;;4.60;;
438;SDS011;206;48.782;9.252;2023-10-08T15:41:05;8.93;;;4.50;;
438;SDS011;206;48.782;9.252;2023-10-08T15:43:31;8.47;;;5.30;;
438;SDS011;206;48.782;9.252;2023-10-08T15:45:56;6.90;;;4.07;;
438;SDS011;206;48.782;9.252;2023-10-08T15:48:22;6.20;;;4.47;;
438;SDS011;206;48.782;9.252;2023-10-08T15:50:48;12.13;;;4.53;;
438;SDS011;206;48.782;9.252;2023-10-08T15:53:13;9.90;;;4.40;;
438;SDS011;206;48.782;9.252;2023-10-08T15:55:39;7.90;;;4.13;;
438;SDS011;206;48.782;9.252;2023-10-08T15:58:04;10.17;;;4.90;;
438;SDS011;206;48.782;9.252;2023-10-08T16:00:30;11.63;;;5.03;;
438;SDS011;206;48.782;9.252;2023-10-08T16:02:58;11.37;;;4.47;;
438;SDS011;206;48.782;9.252;2023-10-08T16:05:23;6.40;;;4.20;;
438;SDS011;206;48.782;9.252;2023-10-08T16:07:49;7.47;;;4.27;;